sensor_id;sensor_type;location;lat;lon;timestamp;P1;durP1;ratioP1;P2;durP2;ratioP2
5483;SDS011;2764;48.794;8.326;2023-03-24T00:00:39;2.90;;;2.77;;
5483;SDS011;2764;48.794;8.326;2023-03-24T00:01:41;5.13;;;2.70;;
5483;SDS011;2764;48.794;8.326;2023-03-24T00:02:43;2.97;;;2.83;;
5483;SDS011;2764;48.794;8.326;2023-03-24T00:03:47;2.87;;;2.70;;
5483;SDS011;2764;48.794;8.326;2023-03-24T00:04:49;11.50;;;3.20;;
5483;SDS011;2764;48.794;8.326;2023-03-24T00:05:56;3.03;;;2.80;;
5483;SDS011;2764;48.794;8.326;2023-03-24T00:06:59;10.27;;;3.30;;
5483;SDS011;2764;48.794;8.326;2023-03-24T00:08:02;7.07;;;2.83;;
5483;SDS011;2764;48.794;8.326;2023-03-24T00:09:05;3.70;;;3.27;;
5483;SDS011;2764;48.794;8.326;2023-03-24T00:10:07;3.17;;;2.97;;
5483;SDS011;2764;48.794;8.326;2023-03-24T00:11:10;2.80;;;2.60;;
5483;SDS011;2764;48.794;8.326;2023-03-24T00:12:13;8.00;;;3.10;;
5483;SDS011;2764;48.794;8.326;2023-03-24T00:13:14;3.37;;;2.50;;
5483;SDS011;2764;48.794;8.326;2023-03-24T00:14:16;5.00;;;2.87;;
5483;SDS011;2764;48.794;8.326;2023-03-24T00:15:19;2.60;;;2.50;;
5483;SDS011;2764;48.794;8.326;2023-03-24T00:16:22;3.57;;;2.60;;
5483;SDS011;2764;48.794;8.326;2023-03-24T00:17:25;4.63;;;3.10;;
5483;SDS011;2764;48.794;8.326;2023-03-24T00:18:29;2.77;;;2.43;;
5483;SDS011;2764;48.794;8.326;2023-03-24T00:19:32;2.67;;;2.47;;
5483;SDS011;2764;48.794;8.326;2023-03-24T00:20:34;2.80;;;2.67;;
5483;SDS011;2764;48.794;8.326;2023-03-24T00:21:36;2.37;;;2.20;;
5483;SDS011;2764;48.794;8.326;2023-03-24T00:22:38;4.00;;;2.53;;
5483;SDS011;2764;48.794;8.326;2023-03-24T00:23:42;2.97;;;2.73;;
5483;SDS011;2764;48.794;8.326;2023-03-24T00:24:44;4.80;;;2.30;;
5483;SDS011;2764;48.794;8.326;2023-03-24T00:25:57;4.73;;;2.73;;
5483;SDS011;2764;48.794;8.326;2023-03-24T00:26:59;3.97;;;2.57;;
5483;SDS011;2764;48.794;8.326;2023-03-24T00:28:04;2.50;;;2.30;;
5483;SDS011;2764;48.794;8.326;2023-03-24T00:29:08;2.50;;;2.30;;
5483;SDS011;2764;48.794;8.326;2023-03-24T00:30:11;2.67;;;2.50;;
5483;SDS011;2764;48.794;8.326;2023-03-24T00:31:14;3.07;;;2.63;;
5483;SDS011;2764;48.794;8.326;2023-03-24T00:32:15;2.97;;;2.77;;
5483;SDS011;2764;48.794;8.326;2023-03-24T00:33:17;2.40;;;2.10;;
5483;SDS011;2764;48.794;8.326;2023-03-24T00:34:19;6.60;;;2.80;;
5483;SDS011;2764;48.794;8.326;2023-03-24T00:35:23;2.80;;;2.33;;
5483;SDS011;2764;48.794;8.326;2023-03-24T00:36:25;2.63;;;2.43;;
5483;SDS011;2764;48.794;8.326;2023-03-24T00:37:29;3.20;;;2.10;;
5483;SDS011;2764;48.794;8.326;2023-03-24T00:38:31;2.50;;;2.40;;
5483;SDS011;2764;48.794;8.326;2023-03-24T00:39:34;2.37;;;2.20;;
5483;SDS011;2764;48.794;8.326;2023-03-24T00:40:36;2.40;;;2.20;;
5483;SDS011;2764;48.794;8.326;2023-03-24T00:41:37;2.40;;;1.93;;
5483;SDS011;2764;48.794;8.326;2023-03-24T00:42:39;2.20;;;2.03;;
5483;SDS011;2764;48.794;8.326;2023-03-24T00:43:41;2.00;;;1.90;;
5483;SDS011;2764;48.794;8.326;2023-03-24T00:44:43;2.60;;;2.27;;
5483;SDS011;2764;48.794;8.326;2023-03-24T00:45:45;2.07;;;1.97;;
5483;SDS011;2764;48.794;8.326;2023-03-24T00:46:47;2.50;;;2.30;;
5483;SDS011;2764;48.794;8.326;2023-03-24T00:47:56;2.77;;;2.57;;
5483;SDS011;2764;48.794;8.326;2023-03-24T00:49:05;3.70;;;3.00;;
5483;SDS011;2764;48.794;8.326;2023-03-24T00:50:08;2.50;;;2.30;;
5483;SDS011;2764;48.794;8.326;2023-03-24T00:51:12;2.23;;;2.00;;
5483;SDS011;2764;48.794;8.326;2023-03-24T00:52:15;2.17;;;2.07;;
5483;SDS011;2764;48.794;8.326;2023-03-24T00:53:18;2.37;;;2.00;;
5483;SDS011;2764;48.794;8.326;2023-03-24T00:54:20;2.20;;;2.03;;
5483;SDS011;2764;48.794;8.326;2023-03-24T00:55:31;1.90;;;1.80;;
5483;SDS011;2764;48.794;8.326;2023-03-24T00:56:35;2.40;;;2.20;;
5483;SDS011;2764;48.794;8.326;2023-03-24T00:57:38;3.70;;;2.27;;
5483;SDS011;2764;48.794;8.326;2023-03-24T00:58:41;2.33;;;2.23;;
5483;SDS011;2764;48.794;8.326;2023-03-24T00:59:42;2.53;;;2.20;;
5483;SDS011;2764;48.794;8.326;2023-03-24T01:00:50;2.80;;;2.10;;
5483;SDS011;2764;48.794;8.326;2023-03-24T01:01:52;2.23;;;2.13;;
5483;SDS011;2764;48.794;8.326;2023-03-24T01:02:55;4.60;;;2.40;;
5483;SDS011;2764;48.794;8.326;2023-03-24T01:03:57;2.80;;;2.30;;
5483;SDS011;2764;48.794;8.326;2023-03-24T01:05:00;3.07;;;2.37;;
5483;SDS011;2764;48.794;8.326;2023-03-24T01:06:02;2.30;;;2.10;;
5483;SDS011;2764;48.794;8.326;2023-03-24T01:07:08;3.60;;;2.27;;
5483;SDS011;2764;48.794;8.326;2023-03-24T01:08:11;8.33;;;2.20;;
5483;SDS011;2764;48.794;8.326;2023-03-24T01:09:13;1.90;;;1.80;;
5483;SDS011;2764;48.794;8.326;2023-03-24T01:10:15;2.93;;;1.97;;
5483;SDS011;2764;48.794;8.326;2023-03-24T01:11:16;1.83;;;1.73;;
5483;SDS011;2764;48.794;8.326;2023-03-24T01:12:18;2.30;;;2.20;;
5483;SDS011;2764;48.794;8.326;2023-03-24T01:13:21;2.07;;;1.97;;
5483;SDS011;2764;48.794;8.326;2023-03-24T01:14:23;1.70;;;1.60;;
5483;SDS011;2764;48.794;8.326;2023-03-24T01:15:26;2.50;;;2.30;;
5483;SDS011;2764;48.794;8.326;2023-03-24T01:16:28;2.70;;;1.77;;
5483;SDS011;2764;48.794;8.326;2023-03-24T01:17:30;2.50;;;2.30;;
5483;SDS011;2764;48.794;8.326;2023-03-24T01:18:31;2.40;;;2.30;;
5483;SDS011;2764;48.794;8.326;2023-03-24T01:19:35;2.73;;;2.53;;
5483;SDS011;2764;48.794;8.326;2023-03-24T01:20:37;1.57;;;1.47;;
5483;SDS011;2764;48.794;8.326;2023-03-24T01:21:40;1.97;;;1.87;;
5483;SDS011;2764;48.794;8.326;2023-03-24T01:22:42;1.50;;;1.50;;
5483;SDS011;2764;48.794;8.326;2023-03-24T01:23:45;2.40;;;1.60;;
5483;SDS011;2764;48.794;8.326;2023-03-24T01:24:48;1.60;;;1.50;;
5483;SDS011;2764;48.794;8.326;2023-03-24T01:25:50;2.00;;;1.30;;
5483;SDS011;2764;48.794;8.326;2023-03-24T01:26:52;1.50;;;1.40;;
5483;SDS011;2764;48.794;8.326;2023-03-24T01:27:53;2.07;;;1.77;;
5483;SDS011;2764;48.794;8.326;2023-03-24T01:28:55;1.60;;;1.53;;
5483;SDS011;2764;48.794;8.326;2023-03-24T01:29:57;10.33;;;1.80;;
5483;SDS011;2764;48.794;8.326;2023-03-24T01:30:59;1.57;;;1.40;;
5483;SDS011;2764;48.794;8.326;2023-03-24T01:32:01;1.37;;;1.27;;
5483;SDS011;2764;48.794;8.326;2023-03-24T01:33:03;1.70;;;1.60;;
5483;SDS011;2764;48.794;8.326;2023-03-24T01:34:05;3.97;;;1.47;;
5483;SDS011;2764;48.794;8.326;2023-03-24T01:35:07;1.70;;;1.60;;
5483;SDS011;2764;48.794;8.326;2023-03-24T01:36:08;1.73;;;1.60;;
5483;SDS011;2764;48.794;8.326;2023-03-24T01:37:10;1.60;;;1.50;;
5483;SDS011;2764;48.794;8.326;2023-03-24T01:38:12;1.70;;;1.60;;
5483;SDS011;2764;48.794;8.326;2023-03-24T01:39:14;1.80;;;1.70;;
5483;SDS011;2764;48.794;8.326;2023-03-24T01:40:17;3.33;;;1.83;;
5483;SDS011;2764;48.794;8.326;2023-03-24T01:41:19;2.43;;;1.70;;
5483;SDS011;2764;48.794;8.326;2023-03-24T01:42:23;1.40;;;1.30;;
5483;SDS011;2764;48.794;8.326;2023-03-24T01:43:27;1.80;;;1.70;;
5483;SDS011;2764;48.794;8.326;2023-03-24T01:44:35;2.03;;;1.80;;
5483;SDS011;2764;48.794;8.326;2023-03-24T01:46:39;1.63;;;1.23;;
5483;SDS011;2764;48.794;8.326;2023-03-24T01:47:41;2.57;;;2.10;;
5483;SDS011;2764;48.794;8.326;2023-03-24T01:49:55;1.37;;;1.27;;
5483;SDS011;2764;48.794;8.326;2023-03-24T01:52:01;1.60;;;1.50;;
5483;SDS011;2764;48.794;8.326;2023-03-24T01:53:03;1.90;;;1.80;;
5483;SDS011;2764;48.794;8.326;2023-03-24T01:54:10;1.70;;;1.60;;
5483;SDS011;2764;48.794;8.326;2023-03-24T01:55:13;1.50;;;1.40;;
5483;SDS011;2764;48.794;8.326;2023-03-24T01:56:18;1.87;;;1.77;;
5483;SDS011;2764;48.794;8.326;2023-03-24T01:57:25;1.80;;;1.70;;
5483;SDS011;2764;48.794;8.326;2023-03-24T01:58:28;4.30;;;1.87;;
5483;SDS011;2764;48.794;8.326;2023-03-24T01:59:32;1.97;;;1.67;;
5483;SDS011;2764;48.794;8.326;2023-03-24T02:00:36;4.00;;;1.50;;
5483;SDS011;2764;48.794;8.326;2023-03-24T02:01:38;3.40;;;1.70;;
5483;SDS011;2764;48.794;8.326;2023-03-24T02:02:42;1.43;;;1.33;;
5483;SDS011;2764;48.794;8.326;2023-03-24T02:03:46;1.50;;;1.40;;
5483;SDS011;2764;48.794;8.326;2023-03-24T02:04:50;1.80;;;1.70;;
5483;SDS011;2764;48.794;8.326;2023-03-24T02:05:54;4.07;;;1.90;;
5483;SDS011;2764;48.794;8.326;2023-03-24T02:06:58;1.63;;;1.53;;
5483;SDS011;2764;48.794;8.326;2023-03-24T02:08:06;2.50;;;1.60;;
5483;SDS011;2764;48.794;8.326;2023-03-24T02:09:09;1.80;;;1.63;;
5483;SDS011;2764;48.794;8.326;2023-03-24T02:10:13;2.20;;;2.00;;
5483;SDS011;2764;48.794;8.326;2023-03-24T02:11:15;2.53;;;1.20;;
5483;SDS011;2764;48.794;8.326;2023-03-24T02:12:17;1.73;;;1.63;;
5483;SDS011;2764;48.794;8.326;2023-03-24T02:13:18;2.03;;;1.40;;
5483;SDS011;2764;48.794;8.326;2023-03-24T02:14:20;3.70;;;1.80;;
5483;SDS011;2764;48.794;8.326;2023-03-24T02:15:22;1.70;;;1.60;;
5483;SDS011;2764;48.794;8.326;2023-03-24T02:28:58;2.03;;;1.93;;
5483;SDS011;2764;48.794;8.326;2023-03-24T02:40:35;1.70;;;1.60;;
5483;SDS011;2764;48.794;8.326;2023-03-24T02:42:22;2.03;;;1.90;;
5483;SDS011;2764;48.794;8.326;2023-03-24T02:44:14;1.90;;;1.77;;
5483;SDS011;2764;48.794;8.326;2023-03-24T02:45:28;4.70;;;1.60;;
5483;SDS011;2764;48.794;8.326;2023-03-24T02:46:36;1.63;;;1.50;;
5483;SDS011;2764;48.794;8.326;2023-03-24T02:48:51;2.60;;;1.80;;
5483;SDS011;2764;48.794;8.326;2023-03-24T02:51:36;4.03;;;1.73;;
5483;SDS011;2764;48.794;8.326;2023-03-24T02:52:42;2.70;;;2.50;;
5483;SDS011;2764;48.794;8.326;2023-03-24T02:54:04;1.63;;;1.53;;
5483;SDS011;2764;48.794;8.326;2023-03-24T02:55:19;1.57;;;1.57;;
5483;SDS011;2764;48.794;8.326;2023-03-24T02:56:29;6.03;;;2.07;;
5483;SDS011;2764;48.794;8.326;2023-03-24T02:57:33;2.20;;;2.10;;
5483;SDS011;2764;48.794;8.326;2023-03-24T03:01:24;8.77;;;3.13;;
5483;SDS011;2764;48.794;8.326;2023-03-24T03:02:32;2.07;;;1.90;;
5483;SDS011;2764;48.794;8.326;2023-03-24T03:03:37;2.63;;;2.47;;
5483;SDS011;2764;48.794;8.326;2023-03-24T03:04:43;2.60;;;2.40;;
5483;SDS011;2764;48.794;8.326;2023-03-24T03:05:54;2.20;;;2.00;;
5483;SDS011;2764;48.794;8.326;2023-03-24T03:07:01;3.37;;;2.40;;
5483;SDS011;2764;48.794;8.326;2023-03-24T03:08:07;1.90;;;1.80;;
5483;SDS011;2764;48.794;8.326;2023-03-24T03:09:11;2.40;;;2.20;;
5483;SDS011;2764;48.794;8.326;2023-03-24T03:10:23;6.90;;;2.37;;
5483;SDS011;2764;48.794;8.326;2023-03-24T03:11:25;2.27;;;2.17;;
5483;SDS011;2764;48.794;8.326;2023-03-24T03:12:28;2.50;;;2.07;;
5483;SDS011;2764;48.794;8.326;2023-03-24T03:14:37;1.90;;;1.80;;
5483;SDS011;2764;48.794;8.326;2023-03-24T03:15:42;2.23;;;2.07;;
5483;SDS011;2764;48.794;8.326;2023-03-24T03:16:50;2.90;;;2.30;;
5483;SDS011;2764;48.794;8.326;2023-03-24T03:17:55;2.40;;;2.10;;
5483;SDS011;2764;48.794;8.326;2023-03-24T03:19:00;2.00;;;1.90;;
5483;SDS011;2764;48.794;8.326;2023-03-24T03:20:08;1.97;;;1.87;;
5483;SDS011;2764;48.794;8.326;2023-03-24T03:21:12;2.50;;;2.40;;
5483;SDS011;2764;48.794;8.326;2023-03-24T03:22:16;2.47;;;1.90;;
5483;SDS011;2764;48.794;8.326;2023-03-24T03:23:21;3.43;;;2.27;;
5483;SDS011;2764;48.794;8.326;2023-03-24T03:24:26;3.97;;;2.30;;
5483;SDS011;2764;48.794;8.326;2023-03-24T03:25:32;2.60;;;2.50;;
5483;SDS011;2764;48.794;8.326;2023-03-24T03:26:35;3.07;;;2.50;;
5483;SDS011;2764;48.794;8.326;2023-03-24T03:27:36;4.23;;;2.40;;
5483;SDS011;2764;48.794;8.326;2023-03-24T03:28:40;3.33;;;2.40;;
5483;SDS011;2764;48.794;8.326;2023-03-24T03:29:44;8.23;;;1.93;;
5483;SDS011;2764;48.794;8.326;2023-03-24T03:30:52;2.67;;;2.47;;
5483;SDS011;2764;48.794;8.326;2023-03-24T03:31:55;3.13;;;2.50;;
5483;SDS011;2764;48.794;8.326;2023-03-24T03:33:11;2.80;;;2.60;;
5483;SDS011;2764;48.794;8.326;2023-03-24T03:34:28;7.03;;;2.23;;
5483;SDS011;2764;48.794;8.326;2023-03-24T03:35:53;5.30;;;2.70;;
5483;SDS011;2764;48.794;8.326;2023-03-24T03:37:17;3.37;;;2.43;;
5483;SDS011;2764;48.794;8.326;2023-03-24T03:38:27;2.83;;;2.63;;
5483;SDS011;2764;48.794;8.326;2023-03-24T03:39:36;8.03;;;2.20;;
5483;SDS011;2764;48.794;8.326;2023-03-24T03:40:41;2.80;;;2.60;;
5483;SDS011;2764;48.794;8.326;2023-03-24T03:41:48;3.83;;;2.70;;
5483;SDS011;2764;48.794;8.326;2023-03-24T03:42:50;3.07;;;2.80;;
5483;SDS011;2764;48.794;8.326;2023-03-24T03:43:51;3.13;;;2.83;;
5483;SDS011;2764;48.794;8.326;2023-03-24T03:44:53;3.23;;;2.50;;
5483;SDS011;2764;48.794;8.326;2023-03-24T03:45:55;4.40;;;2.67;;
5483;SDS011;2764;48.794;8.326;2023-03-24T03:46:57;2.33;;;2.23;;
5483;SDS011;2764;48.794;8.326;2023-03-24T03:47:58;2.30;;;2.20;;
5483;SDS011;2764;48.794;8.326;2023-03-24T03:49:00;3.43;;;2.27;;
5483;SDS011;2764;48.794;8.326;2023-03-24T03:50:03;3.60;;;2.20;;
5483;SDS011;2764;48.794;8.326;2023-03-24T03:51:04;2.97;;;2.73;;
5483;SDS011;2764;48.794;8.326;2023-03-24T03:52:14;2.57;;;2.47;;
5483;SDS011;2764;48.794;8.326;2023-03-24T03:53:17;5.63;;;2.43;;
5483;SDS011;2764;48.794;8.326;2023-03-24T03:54:19;2.70;;;2.57;;
5483;SDS011;2764;48.794;8.326;2023-03-24T03:55:21;2.70;;;2.17;;
5483;SDS011;2764;48.794;8.326;2023-03-24T03:56:24;2.17;;;2.00;;
5483;SDS011;2764;48.794;8.326;2023-03-24T03:57:27;2.13;;;1.97;;
5483;SDS011;2764;48.794;8.326;2023-03-24T03:58:28;2.17;;;2.07;;
5483;SDS011;2764;48.794;8.326;2023-03-24T03:59:35;2.40;;;2.20;;
5483;SDS011;2764;48.794;8.326;2023-03-24T04:00:36;1.60;;;1.50;;
5483;SDS011;2764;48.794;8.326;2023-03-24T04:01:38;2.97;;;2.23;;
5483;SDS011;2764;48.794;8.326;2023-03-24T04:07:41;2.07;;;1.97;;
5483;SDS011;2764;48.794;8.326;2023-03-24T04:08:48;1.50;;;1.40;;
5483;SDS011;2764;48.794;8.326;2023-03-24T04:10:04;1.70;;;1.47;;
5483;SDS011;2764;48.794;8.326;2023-03-24T04:12:38;1.93;;;1.63;;
5483;SDS011;2764;48.794;8.326;2023-03-24T04:19:11;2.17;;;1.93;;
5483;SDS011;2764;48.794;8.326;2023-03-24T04:20:26;1.90;;;1.80;;
5483;SDS011;2764;48.794;8.326;2023-03-24T04:26:31;2.20;;;2.10;;
5483;SDS011;2764;48.794;8.326;2023-03-24T04:27:36;1.90;;;1.80;;
5483;SDS011;2764;48.794;8.326;2023-03-24T04:29:51;2.53;;;2.43;;
5483;SDS011;2764;48.794;8.326;2023-03-24T04:31:14;3.00;;;2.70;;
5483;SDS011;2764;48.794;8.326;2023-03-24T04:34:36;4.10;;;2.63;;
5483;SDS011;2764;48.794;8.326;2023-03-24T04:35:40;2.70;;;2.50;;
5483;SDS011;2764;48.794;8.326;2023-03-24T04:36:46;3.10;;;2.80;;
5483;SDS011;2764;48.794;8.326;2023-03-24T04:37:51;7.63;;;2.70;;
5483;SDS011;2764;48.794;8.326;2023-03-24T04:38:53;3.70;;;3.40;;
5483;SDS011;2764;48.794;8.326;2023-03-24T04:39:58;6.00;;;3.60;;
5483;SDS011;2764;48.794;8.326;2023-03-24T04:41:00;4.07;;;3.20;;
5483;SDS011;2764;48.794;8.326;2023-03-24T04:42:05;5.67;;;3.27;;
5483;SDS011;2764;48.794;8.326;2023-03-24T04:43:09;4.73;;;4.33;;
5483;SDS011;2764;48.794;8.326;2023-03-24T04:44:13;4.40;;;4.00;;
5483;SDS011;2764;48.794;8.326;2023-03-24T04:45:17;5.30;;;4.30;;
5483;SDS011;2764;48.794;8.326;2023-03-24T04:46:20;4.80;;;4.37;;
5483;SDS011;2764;48.794;8.326;2023-03-24T04:47:23;5.97;;;4.80;;
5483;SDS011;2764;48.794;8.326;2023-03-24T04:48:26;7.73;;;4.90;;
5483;SDS011;2764;48.794;8.326;2023-03-24T04:49:28;9.53;;;4.50;;
5483;SDS011;2764;48.794;8.326;2023-03-24T04:50:36;8.33;;;5.30;;
5483;SDS011;2764;48.794;8.326;2023-03-24T04:51:38;5.20;;;4.80;;
5483;SDS011;2764;48.794;8.326;2023-03-24T04:52:41;9.70;;;6.17;;
5483;SDS011;2764;48.794;8.326;2023-03-24T04:53:43;7.30;;;6.50;;
5483;SDS011;2764;48.794;8.326;2023-03-24T04:54:44;24.63;;;6.60;;
5483;SDS011;2764;48.794;8.326;2023-03-24T04:56:51;7.20;;;6.60;;
5483;SDS011;2764;48.794;8.326;2023-03-24T04:57:53;7.60;;;6.03;;
5483;SDS011;2764;48.794;8.326;2023-03-24T04:58:54;7.00;;;6.20;;
5483;SDS011;2764;48.794;8.326;2023-03-24T04:59:57;8.23;;;6.80;;
5483;SDS011;2764;48.794;8.326;2023-03-24T05:00:58;8.03;;;7.33;;
5483;SDS011;2764;48.794;8.326;2023-03-24T05:02:00;12.20;;;6.90;;
5483;SDS011;2764;48.794;8.326;2023-03-24T05:03:02;7.93;;;6.80;;
5483;SDS011;2764;48.794;8.326;2023-03-24T05:04:04;7.43;;;6.80;;
5483;SDS011;2764;48.794;8.326;2023-03-24T05:05:06;6.07;;;5.57;;
5483;SDS011;2764;48.794;8.326;2023-03-24T05:06:09;11.17;;;6.50;;
5483;SDS011;2764;48.794;8.326;2023-03-24T05:07:11;8.10;;;6.53;;
5483;SDS011;2764;48.794;8.326;2023-03-24T05:08:16;9.07;;;6.17;;
5483;SDS011;2764;48.794;8.326;2023-03-24T05:09:18;9.67;;;7.30;;
5483;SDS011;2764;48.794;8.326;2023-03-24T05:10:22;9.00;;;6.40;;
5483;SDS011;2764;48.794;8.326;2023-03-24T05:11:25;10.40;;;6.70;;
5483;SDS011;2764;48.794;8.326;2023-03-24T05:12:27;6.97;;;6.30;;
5483;SDS011;2764;48.794;8.326;2023-03-24T05:13:29;7.20;;;6.50;;
5483;SDS011;2764;48.794;8.326;2023-03-24T05:14:31;6.87;;;6.30;;
5483;SDS011;2764;48.794;8.326;2023-03-24T05:15:33;7.93;;;6.90;;
5483;SDS011;2764;48.794;8.326;2023-03-24T05:16:35;9.30;;;6.23;;
5483;SDS011;2764;48.794;8.326;2023-03-24T05:17:37;7.87;;;7.10;;
5483;SDS011;2764;48.794;8.326;2023-03-24T05:18:38;8.90;;;6.77;;
5483;SDS011;2764;48.794;8.326;2023-03-24T05:19:40;7.33;;;6.40;;
5483;SDS011;2764;48.794;8.326;2023-03-24T05:20:42;7.37;;;6.73;;
5483;SDS011;2764;48.794;8.326;2023-03-24T05:21:43;7.20;;;6.50;;
5483;SDS011;2764;48.794;8.326;2023-03-24T05:22:45;11.33;;;7.60;;
5483;SDS011;2764;48.794;8.326;2023-03-24T05:23:47;8.77;;;7.57;;
5483;SDS011;2764;48.794;8.326;2023-03-24T05:24:49;9.37;;;7.53;;
5483;SDS011;2764;48.794;8.326;2023-03-24T05:25:50;9.27;;;7.57;;
5483;SDS011;2764;48.794;8.326;2023-03-24T05:26:51;11.23;;;7.87;;
5483;SDS011;2764;48.794;8.326;2023-03-24T05:27:53;10.50;;;7.90;;
5483;SDS011;2764;48.794;8.326;2023-03-24T05:28:55;9.67;;;7.43;;
5483;SDS011;2764;48.794;8.326;2023-03-24T05:29:57;9.70;;;7.53;;
5483;SDS011;2764;48.794;8.326;2023-03-24T05:30:58;12.23;;;7.90;;
5483;SDS011;2764;48.794;8.326;2023-03-24T05:32:01;8.37;;;7.40;;
5483;SDS011;2764;48.794;8.326;2023-03-24T05:33:03;12.00;;;7.80;;
5483;SDS011;2764;48.794;8.326;2023-03-24T05:34:05;19.43;;;10.40;;
5483;SDS011;2764;48.794;8.326;2023-03-24T05:35:07;18.20;;;10.60;;
5483;SDS011;2764;48.794;8.326;2023-03-24T05:36:13;16.40;;;8.53;;
5483;SDS011;2764;48.794;8.326;2023-03-24T05:37:15;10.60;;;8.63;;
5483;SDS011;2764;48.794;8.326;2023-03-24T05:38:18;10.97;;;8.20;;
5483;SDS011;2764;48.794;8.326;2023-03-24T05:39:19;13.50;;;8.60;;
5483;SDS011;2764;48.794;8.326;2023-03-24T05:40:21;14.30;;;8.63;;
5483;SDS011;2764;48.794;8.326;2023-03-24T05:41:24;16.17;;;8.63;;
5483;SDS011;2764;48.794;8.326;2023-03-24T05:42:26;12.67;;;8.80;;
5483;SDS011;2764;48.794;8.326;2023-03-24T05:43:27;11.70;;;9.30;;
5483;SDS011;2764;48.794;8.326;2023-03-24T05:44:32;10.60;;;8.27;;
5483;SDS011;2764;48.794;8.326;2023-03-24T05:45:33;20.37;;;16.53;;
5483;SDS011;2764;48.794;8.326;2023-03-24T05:46:35;15.60;;;12.80;;
5483;SDS011;2764;48.794;8.326;2023-03-24T05:47:38;10.00;;;8.93;;
5483;SDS011;2764;48.794;8.326;2023-03-24T05:48:39;26.73;;;19.70;;
5483;SDS011;2764;48.794;8.326;2023-03-24T05:49:41;19.67;;;11.50;;
5483;SDS011;2764;48.794;8.326;2023-03-24T05:50:43;22.93;;;17.03;;
5483;SDS011;2764;48.794;8.326;2023-03-24T05:51:44;37.07;;;29.17;;
5483;SDS011;2764;48.794;8.326;2023-03-24T05:52:46;21.40;;;14.87;;
5483;SDS011;2764;48.794;8.326;2023-03-24T05:53:48;16.17;;;10.67;;
5483;SDS011;2764;48.794;8.326;2023-03-24T05:54:49;12.20;;;10.27;;
5483;SDS011;2764;48.794;8.326;2023-03-24T05:55:52;14.87;;;8.40;;
5483;SDS011;2764;48.794;8.326;2023-03-24T05:56:54;10.40;;;8.00;;
5483;SDS011;2764;48.794;8.326;2023-03-24T05:57:55;9.50;;;7.80;;
5483;SDS011;2764;48.794;8.326;2023-03-24T05:59:00;13.00;;;7.60;;
5483;SDS011;2764;48.794;8.326;2023-03-24T06:00:02;10.90;;;8.03;;
5483;SDS011;2764;48.794;8.326;2023-03-24T06:01:11;8.60;;;7.80;;
5483;SDS011;2764;48.794;8.326;2023-03-24T06:02:13;11.63;;;10.43;;
5483;SDS011;2764;48.794;8.326;2023-03-24T06:03:15;8.70;;;7.90;;
5483;SDS011;2764;48.794;8.326;2023-03-24T06:04:18;9.10;;;7.90;;
5483;SDS011;2764;48.794;8.326;2023-03-24T06:05:21;11.40;;;8.13;;
5483;SDS011;2764;48.794;8.326;2023-03-24T06:06:22;11.33;;;6.87;;
5483;SDS011;2764;48.794;8.326;2023-03-24T06:07:24;9.40;;;7.30;;
5483;SDS011;2764;48.794;8.326;2023-03-24T06:08:27;7.67;;;7.07;;
5483;SDS011;2764;48.794;8.326;2023-03-24T06:09:34;6.90;;;6.30;;
5483;SDS011;2764;48.794;8.326;2023-03-24T06:10:40;6.00;;;5.50;;
5483;SDS011;2764;48.794;8.326;2023-03-24T06:11:42;7.30;;;5.30;;
5483;SDS011;2764;48.794;8.326;2023-03-24T06:12:44;6.60;;;6.00;;
5483;SDS011;2764;48.794;8.326;2023-03-24T06:13:46;5.47;;;5.07;;
5483;SDS011;2764;48.794;8.326;2023-03-24T06:14:48;5.73;;;5.20;;
5483;SDS011;2764;48.794;8.326;2023-03-24T06:15:49;7.47;;;5.17;;
5483;SDS011;2764;48.794;8.326;2023-03-24T06:16:54;7.70;;;6.20;;
5483;SDS011;2764;48.794;8.326;2023-03-24T06:17:59;6.87;;;6.20;;
5483;SDS011;2764;48.794;8.326;2023-03-24T06:19:01;5.83;;;5.23;;
5483;SDS011;2764;48.794;8.326;2023-03-24T06:20:03;6.60;;;5.97;;
5483;SDS011;2764;48.794;8.326;2023-03-24T06:21:06;5.90;;;4.93;;
5483;SDS011;2764;48.794;8.326;2023-03-24T06:22:08;6.60;;;5.50;;
5483;SDS011;2764;48.794;8.326;2023-03-24T06:23:10;7.77;;;7.00;;
5483;SDS011;2764;48.794;8.326;2023-03-24T06:24:11;7.77;;;6.77;;
5483;SDS011;2764;48.794;8.326;2023-03-24T06:25:15;7.27;;;6.10;;
5483;SDS011;2764;48.794;8.326;2023-03-24T06:26:18;6.10;;;5.60;;
5483;SDS011;2764;48.794;8.326;2023-03-24T06:27:20;7.97;;;6.80;;
5483;SDS011;2764;48.794;8.326;2023-03-24T06:28:26;6.57;;;5.97;;
5483;SDS011;2764;48.794;8.326;2023-03-24T06:29:31;7.57;;;6.70;;
5483;SDS011;2764;48.794;8.326;2023-03-24T06:30:33;8.57;;;7.80;;
5483;SDS011;2764;48.794;8.326;2023-03-24T06:31:35;10.83;;;9.77;;
5483;SDS011;2764;48.794;8.326;2023-03-24T06:32:37;8.13;;;7.33;;
5483;SDS011;2764;48.794;8.326;2023-03-24T06:33:40;9.07;;;6.87;;
5483;SDS011;2764;48.794;8.326;2023-03-24T06:34:42;9.00;;;6.80;;
5483;SDS011;2764;48.794;8.326;2023-03-24T06:35:44;9.70;;;6.83;;
5483;SDS011;2764;48.794;8.326;2023-03-24T06:36:46;7.13;;;6.43;;
5483;SDS011;2764;48.794;8.326;2023-03-24T06:37:47;8.07;;;6.67;;
5483;SDS011;2764;48.794;8.326;2023-03-24T06:38:49;7.83;;;7.10;;
5483;SDS011;2764;48.794;8.326;2023-03-24T06:39:51;6.43;;;5.97;;
5483;SDS011;2764;48.794;8.326;2023-03-24T06:40:53;6.60;;;6.00;;
5483;SDS011;2764;48.794;8.326;2023-03-24T06:41:54;6.50;;;5.67;;
5483;SDS011;2764;48.794;8.326;2023-03-24T06:42:56;7.07;;;6.57;;
5483;SDS011;2764;48.794;8.326;2023-03-24T06:43:58;7.50;;;6.80;;
5483;SDS011;2764;48.794;8.326;2023-03-24T06:44:59;9.33;;;7.20;;
5483;SDS011;2764;48.794;8.326;2023-03-24T06:46:01;10.60;;;6.97;;
5483;SDS011;2764;48.794;8.326;2023-03-24T06:47:03;9.77;;;8.10;;
5483;SDS011;2764;48.794;8.326;2023-03-24T06:48:05;8.33;;;7.63;;
5483;SDS011;2764;48.794;8.326;2023-03-24T06:49:06;8.77;;;7.47;;
5483;SDS011;2764;48.794;8.326;2023-03-24T06:50:12;9.30;;;8.40;;
5483;SDS011;2764;48.794;8.326;2023-03-24T06:51:13;8.80;;;7.90;;
5483;SDS011;2764;48.794;8.326;2023-03-24T06:52:15;13.07;;;9.07;;
5483;SDS011;2764;48.794;8.326;2023-03-24T06:53:17;10.17;;;9.13;;
5483;SDS011;2764;48.794;8.326;2023-03-24T06:54:18;9.90;;;7.53;;
5483;SDS011;2764;48.794;8.326;2023-03-24T06:55:20;8.53;;;7.50;;
5483;SDS011;2764;48.794;8.326;2023-03-24T06:56:22;8.17;;;6.77;;
5483;SDS011;2764;48.794;8.326;2023-03-24T06:57:24;6.77;;;6.23;;
5483;SDS011;2764;48.794;8.326;2023-03-24T06:58:25;11.73;;;7.17;;
5483;SDS011;2764;48.794;8.326;2023-03-24T06:59:27;8.37;;;7.37;;
5483;SDS011;2764;48.794;8.326;2023-03-24T07:00:29;9.27;;;7.53;;
5483;SDS011;2764;48.794;8.326;2023-03-24T07:01:30;7.90;;;7.20;;
5483;SDS011;2764;48.794;8.326;2023-03-24T07:02:32;14.93;;;7.80;;
5483;SDS011;2764;48.794;8.326;2023-03-24T07:03:36;10.33;;;7.60;;
5483;SDS011;2764;48.794;8.326;2023-03-24T07:04:38;7.67;;;6.90;;
5483;SDS011;2764;48.794;8.326;2023-03-24T07:05:41;6.73;;;6.23;;
5483;SDS011;2764;48.794;8.326;2023-03-24T07:06:43;17.53;;;7.33;;
5483;SDS011;2764;48.794;8.326;2023-03-24T07:08:05;7.07;;;6.30;;
5483;SDS011;2764;48.794;8.326;2023-03-24T07:09:27;7.17;;;6.60;;
5483;SDS011;2764;48.794;8.326;2023-03-24T07:10:29;8.70;;;6.70;;
5483;SDS011;2764;48.794;8.326;2023-03-24T07:11:31;10.83;;;8.00;;
5483;SDS011;2764;48.794;8.326;2023-03-24T07:12:33;10.27;;;9.30;;
5483;SDS011;2764;48.794;8.326;2023-03-24T07:13:35;7.53;;;6.83;;
5483;SDS011;2764;48.794;8.326;2023-03-24T07:14:37;8.03;;;6.20;;
5483;SDS011;2764;48.794;8.326;2023-03-24T07:15:39;5.27;;;4.97;;
5483;SDS011;2764;48.794;8.326;2023-03-24T07:16:40;7.37;;;5.20;;
5483;SDS011;2764;48.794;8.326;2023-03-24T07:17:42;4.50;;;4.30;;
5483;SDS011;2764;48.794;8.326;2023-03-24T07:18:44;7.27;;;6.67;;
5483;SDS011;2764;48.794;8.326;2023-03-24T07:19:45;5.77;;;5.37;;
5483;SDS011;2764;48.794;8.326;2023-03-24T07:20:47;8.57;;;6.03;;
5483;SDS011;2764;48.794;8.326;2023-03-24T07:21:48;6.23;;;5.73;;
5483;SDS011;2764;48.794;8.326;2023-03-24T07:22:54;6.13;;;4.90;;
5483;SDS011;2764;48.794;8.326;2023-03-24T07:23:55;4.70;;;4.40;;
5483;SDS011;2764;48.794;8.326;2023-03-24T07:24:57;5.93;;;5.37;;
5483;SDS011;2764;48.794;8.326;2023-03-24T07:26:01;6.00;;;5.47;;
5483;SDS011;2764;48.794;8.326;2023-03-24T07:27:03;5.30;;;4.83;;
5483;SDS011;2764;48.794;8.326;2023-03-24T07:28:05;4.33;;;3.93;;
5483;SDS011;2764;48.794;8.326;2023-03-24T07:29:08;3.97;;;3.77;;
5483;SDS011;2764;48.794;8.326;2023-03-24T07:30:10;4.17;;;3.90;;